KICTKLAM

Guest
Details From KICT - Wichita Mid Continent
To KLAM - Los Alamos
Flight Number -
Tags Decoded
Created
Modified
Stats Distance 455 nm / 842 km
Max Altitude 0 ft / 0 m
Waypoints 4
Social Downloads 1
Likes 0
Share VATSIM

Download

Looking for another format? Having issues loading an existing format? Contact us
Advertisement - Login to hide

Notes

Decoded

Route

KICT NAXUE 10308 KLAM

ID Type Via Altitude Latitude Longitude Leg Dist Tot Dist Heading (true) Name
O KICT APT - 0 ft / 0 m 37.65754˚ -97.44007˚ - 0 nm - -
NAXUE FIX - 0 ft / 0 m 36.16138˚ -105.97329˚ 419 nm 419 nm 260° / 255° -
10308 FIX - 0 ft / 0 m 36.12774˚ -106.37850˚ 19 nm 439 nm 264° / 264° -
O KLAM APT - 0 ft / 0 m 35.88144˚ -106.27856˚ 15 nm 454 nm 162° / 162° -

Altitude Profile

Advertisement - Login to hide

Weather


0- 5 10 15 20 25 30 35+ Temperature / ° C

Clouds and Precipitation
Forecast for 2017-12-11 12:00 UTC. Updated 13 minutes ago

Ground ~20,000 ft ~40,000 ft Winds

KICT

Details ICAO KICT (ICT)
Name Wichita Mid Continent
Region United States
Timezone America/Chicago (UTC-6.0)
Stats Elevation 1,333 ft / 406 m (AMSL)
Location 37.650182° -97.432173°
Runways 3
Magnetic Variation 3.663° E

METAR

KICT 110853Z 28008KT 10SM CLR 02/M09 A3015 RMK AO2 SLP209 T00221089 56014 $

Decode

TAF

KICT 110523Z 1106/1206 26006KT P6SM SKC FM111500 31013KT P6SM SCT250 FM111700 33022G30KT P6SM SCT150 FM120100 34015KT P6SM FEW040

Decode

Departure Runways

ID Width Length Bearing (true) Bearing (mag) Surface Threshold Offset Overrun Length
01L 151 ft / 46 m 10,317 ft / 3,145 m 19.92° 16.26° Concrete 0 ft / 0 m 200 ft / 61 m
01R 151 ft / 46 m 7,313 ft / 2,229 m 19.93° 16.27° Concrete 0 ft / 0 m 200 ft / 61 m
14 151 ft / 46 m 6,307 ft / 1,922 m 150.10° 146.44° Concrete 0 ft / 0 m 0 ft / 0 m
19L 151 ft / 46 m 7,313 ft / 2,229 m 199.94° 196.28° Concrete 0 ft / 0 m 200 ft / 61 m
19R 151 ft / 46 m 10,317 ft / 3,145 m 199.92° 196.26° Concrete 0 ft / 0 m 200 ft / 61 m
32 151 ft / 46 m 6,307 ft / 1,922 m 330.10° 326.44° Concrete 0 ft / 0 m 0 ft / 0 m

KLAM

Details ICAO KLAM (LAM)
Name LOS ALAMOS
Region United States
Timezone America/Denver (UTC-7.0)
Stats Elevation 7,171 ft / 2,186 m (AMSL)
Location 35.879808° -106.269413°
Runways 1
Magnetic Variation 8.472° E

METAR

KLAM 110935Z AUTO 00000KT 10SM SCT090 01/M20 A3048 RMK AO2 T00051199

Decode

TAF

Not found

Destination Runways

ID Width Length Bearing (true) Bearing (mag) Surface Threshold Offset Overrun Length
09 113 ft / 34 m 5,538 ft / 1,688 m 102.45° 93.98° Asphalt 0 ft / 0 m 0 ft / 0 m
27 113 ft / 34 m 5,538 ft / 1,688 m 282.46° 273.99° Asphalt 0 ft / 0 m 0 ft / 0 m